createdAt,value
2019-03-09T00:00:48.604Z,100.00
2019-03-09T00:03:17.237Z,100.00
2019-03-09T00:05:45.847Z,100.00
2019-03-09T00:08:14.560Z,100.00
2019-03-09T00:10:43.174Z,100.00
2019-03-09T00:13:11.869Z,100.00
2019-03-09T00:15:40.591Z,100.00
2019-03-09T00:18:09.242Z,100.00
2019-03-09T00:20:37.928Z,100.00
2019-03-09T00:23:08.150Z,100.00
2019-03-09T00:25:38.619Z,100.00
2019-03-09T00:28:08.863Z,100.00
2019-03-09T00:30:44.970Z,100.00
2019-03-09T00:33:13.774Z,100.00
2019-03-09T00:35:42.403Z,100.00
2019-03-09T00:38:11.089Z,100.00
2019-03-09T00:40:41.350Z,100.00
2019-03-09T00:43:10.012Z,100.00
2019-03-09T00:45:38.737Z,100.00
2019-03-09T00:48:07.424Z,100.00
2019-03-09T00:50:36.049Z,100.00
2019-03-09T00:53:04.708Z,100.00
2019-03-09T00:55:33.354Z,100.00
2019-03-09T00:58:02.048Z,100.00
2019-03-09T01:00:30.764Z,100.00
2019-03-09T01:02:59.426Z,100.00
2019-03-09T01:05:28.043Z,100.00
2019-03-09T01:07:56.735Z,100.00
2019-03-09T01:10:25.361Z,100.00
2019-03-09T01:12:54.014Z,100.00
2019-03-09T01:15:22.651Z,100.00
2019-03-09T01:17:51.349Z,100.00
2019-03-09T01:20:19.960Z,100.00
2019-03-09T01:22:48.633Z,100.00
2019-03-09T01:25:17.270Z,100.00
2019-03-09T01:27:45.945Z,100.00
2019-03-09T01:30:17.089Z,100.00
2019-03-09T01:32:45.722Z,100.00
2019-03-09T01:35:14.487Z,100.00
2019-03-09T01:37:43.161Z,100.00
2019-03-09T01:40:16.366Z,100.00
2019-03-09T01:42:45.098Z,100.00
2019-03-09T01:45:15.481Z,100.00
2019-03-09T01:47:44.179Z,100.00
2019-03-09T01:50:12.788Z,100.00
2019-03-09T01:52:41.471Z,100.00
2019-03-09T01:55:12.230Z,100.00
2019-03-09T01:57:40.912Z,100.00
2019-03-09T02:00:17.832Z,100.00
2019-03-09T02:02:46.514Z,100.00
2019-03-09T02:05:15.934Z,100.00
2019-03-09T02:07:44.673Z,100.00
2019-03-09T02:10:15.430Z,100.00
2019-03-09T02:12:44.036Z,100.00
2019-03-09T02:15:15.258Z,100.00
2019-03-09T02:17:43.948Z,100.00
2019-03-09T02:20:14.798Z,100.00
2019-03-09T02:22:43.426Z,100.00
2019-03-09T02:25:12.910Z,100.00
2019-03-09T02:27:41.599Z,100.00
2019-03-09T02:30:14.853Z,100.00
2019-03-09T02:32:43.540Z,100.00
2019-03-09T02:35:13.765Z,100.00
2019-03-09T02:37:42.435Z,100.00
2019-03-09T02:40:13.542Z,100.00
2019-03-09T02:42:42.276Z,100.00
2019-03-09T02:45:13.825Z,100.00
2019-03-09T02:47:42.516Z,100.00
2019-03-09T02:50:14.146Z,100.00
2019-03-09T02:52:42.842Z,100.00
2019-03-09T02:55:12.659Z,100.00
2019-03-09T02:57:41.274Z,100.00
2019-03-09T03:00:17.859Z,100.00
2019-03-09T03:02:48.060Z,100.00
2019-03-09T03:05:16.819Z,100.00
2019-03-09T03:07:45.463Z,100.00
2019-03-09T03:10:14.191Z,100.00
2019-03-09T03:12:42.889Z,100.00
2019-03-09T03:15:14.028Z,100.00
2019-03-09T03:17:42.765Z,100.00
2019-03-09T03:20:11.427Z,100.00
2019-03-09T03:22:40.097Z,100.00
2019-03-09T03:25:08.778Z,100.00
2019-03-09T03:27:37.388Z,100.00
2019-03-09T03:30:07.980Z,100.00
2019-03-09T03:32:36.940Z,100.00
2019-03-09T03:35:08.336Z,100.00
2019-03-09T03:37:36.938Z,100.00
2019-03-09T03:40:08.889Z,100.00
2019-03-09T03:42:37.659Z,100.00
2019-03-09T03:45:08.940Z,100.00
2019-03-09T03:47:37.620Z,100.00
2019-03-09T03:50:07.029Z,100.00
2019-03-09T03:52:35.712Z,100.00
2019-03-09T03:55:05.705Z,100.00
2019-03-09T03:57:34.445Z,100.00
2019-03-09T04:00:03.162Z,100.00
2019-03-09T04:02:31.863Z,100.00
2019-03-09T04:05:00.488Z,100.00
2019-03-09T04:07:29.157Z,100.00
2019-03-09T04:09:57.810Z,100.00
2019-03-09T04:12:26.595Z,100.00
2019-03-09T04:14:55.242Z,100.00
2019-03-09T04:17:23.862Z,100.00
2019-03-09T04:19:52.556Z,100.00
2019-03-09T04:22:21.174Z,100.00
2019-03-09T04:24:49.863Z,100.00
2019-03-09T04:27:18.577Z,100.00
2019-03-09T04:29:47.261Z,100.00
2019-03-09T04:32:15.860Z,100.00
2019-03-09T04:34:44.575Z,100.00
2019-03-09T04:37:17.114Z,100.00
2019-03-09T04:39:45.809Z,100.00
2019-03-09T04:42:14.426Z,100.00
2019-03-09T04:44:43.118Z,100.00
2019-03-09T04:47:11.736Z,100.00
2019-03-09T04:49:40.416Z,100.00
2019-03-09T04:52:09.031Z,100.00
2019-03-09T04:54:37.664Z,100.00
2019-03-09T04:57:06.337Z,100.00
2019-03-09T04:59:34.958Z,100.00
2019-03-09T05:02:03.628Z,100.00
2019-03-09T05:04:40.801Z,100.00
2019-03-09T05:07:09.590Z,100.00
2019-03-09T05:09:57.951Z,100.00
2019-03-09T05:12:26.622Z,100.00
2019-03-09T05:14:55.301Z,100.00
2019-03-09T05:17:24.107Z,100.00
2019-03-09T05:19:52.731Z,100.00
2019-03-09T05:22:21.436Z,100.00
2019-03-09T05:24:50.082Z,100.00
2019-03-09T05:27:18.687Z,100.00
2019-03-09T05:29:47.385Z,100.00
2019-03-09T05:32:16.063Z,100.00
2019-03-09T05:34:46.323Z,100.00
2019-03-09T05:37:14.978Z,100.00
2019-03-09T05:39:45.775Z,100.00
2019-03-09T05:42:14.445Z,100.00
2019-03-09T05:44:43.152Z,100.00
2019-03-09T05:47:11.783Z,100.00
2019-03-09T05:49:40.472Z,100.00
2019-03-09T05:52:24.349Z,100.00
2019-03-09T05:54:54.318Z,100.00
2019-03-09T05:57:22.934Z,100.00
2019-03-09T05:59:51.895Z,100.00
2019-03-09T06:02:20.576Z,100.00
2019-03-09T06:04:49.204Z,100.00
2019-03-09T06:07:17.925Z,100.00
2019-03-09T06:09:46.618Z,100.00
2019-03-09T06:12:15.215Z,100.00
2019-03-09T06:14:45.081Z,100.00
2019-03-09T06:17:13.806Z,100.00
2019-03-09T06:19:42.431Z,100.00
2019-03-09T06:22:11.148Z,100.00
2019-03-09T06:24:39.875Z,100.00
2019-03-09T06:27:08.584Z,100.00
2019-03-09T06:29:37.275Z,100.00
2019-03-09T06:32:25.488Z,100.00
2019-03-09T06:34:56.218Z,100.00
2019-03-09T06:37:25.131Z,100.00
2019-03-09T06:39:56.160Z,100.00
2019-03-09T06:42:27.881Z,100.00
2019-03-09T06:44:56.542Z,100.00
2019-03-09T06:47:25.273Z,100.00
2019-03-09T06:49:54.170Z,100.00
2019-03-09T06:52:22.789Z,100.00
2019-03-09T06:54:51.481Z,100.00
2019-03-09T06:57:20.285Z,100.00
2019-03-09T06:59:49.071Z,100.00
2019-03-09T07:02:17.872Z,100.00
2019-03-09T07:04:46.547Z,100.00
2019-03-09T07:07:15.259Z,100.00
2019-03-09T07:09:44.019Z,100.00
2019-03-09T07:12:12.636Z,100.00
2019-03-09T07:14:56.762Z,100.00
2019-03-09T07:17:25.549Z,100.00
2019-03-09T07:19:54.458Z,100.00
2019-03-09T07:22:23.226Z,100.00
2019-03-09T07:24:52.007Z,100.00
2019-03-09T07:27:22.994Z,100.00
2019-03-09T07:29:51.740Z,100.00
2019-03-09T07:32:20.529Z,100.00
2019-03-09T07:34:49.223Z,100.00
2019-03-09T07:37:18.011Z,100.00
2019-03-09T07:39:46.817Z,100.00
2019-03-09T07:42:15.482Z,100.00
2019-03-09T07:44:44.284Z,100.00
2019-03-09T07:47:12.989Z,100.00
2019-03-09T07:49:41.740Z,100.00
2019-03-09T07:52:36.039Z,100.00
2019-03-09T07:55:07.298Z,100.00
2019-03-09T07:57:36.316Z,100.00
2019-03-09T08:00:12.841Z,100.00
2019-03-09T08:02:41.732Z,100.00
2019-03-09T08:05:10.844Z,100.00
2019-03-09T08:07:39.737Z,100.00
2019-03-09T08:10:22.734Z,100.00
2019-03-09T08:12:51.533Z,100.00
2019-03-09T08:15:21.261Z,100.00
2019-03-09T08:17:50.043Z,100.00
2019-03-09T08:20:20.177Z,100.00
2019-03-09T08:22:49.263Z,100.00
2019-03-09T08:25:19.882Z,100.00
2019-03-09T08:27:48.570Z,100.00
2019-03-09T08:30:25.351Z,100.00
2019-03-09T08:32:54.139Z,100.00
2019-03-09T08:35:25.785Z,100.00
2019-03-09T08:37:54.786Z,100.00
2019-03-09T08:40:23.782Z,100.00
2019-03-09T08:42:52.918Z,100.00
2019-03-09T08:45:22.173Z,100.00
2019-03-09T08:47:53.065Z,100.00
2019-03-09T08:50:26.235Z,100.00
2019-03-09T08:52:55.000Z,100.00
2019-03-09T08:55:24.003Z,100.00
2019-03-09T08:57:52.690Z,100.00
2019-03-09T09:00:30.499Z,100.00
2019-03-09T09:02:59.670Z,100.00
2019-03-09T09:05:28.759Z,100.00
2019-03-09T09:07:57.558Z,100.00
2019-03-09T09:10:27.628Z,100.00
2019-03-09T09:12:56.358Z,100.00
2019-03-09T09:15:25.141Z,100.00
2019-03-09T09:17:53.882Z,100.00
2019-03-09T09:20:24.779Z,100.00
2019-03-09T09:22:54.166Z,100.00
2019-03-09T09:25:22.987Z,100.00
2019-03-09T09:27:52.170Z,100.00
2019-03-09T09:30:26.457Z,100.00
2019-03-09T09:32:56.731Z,100.00
2019-03-09T09:35:25.493Z,100.00
2019-03-09T09:37:54.419Z,100.00
2019-03-09T09:40:25.336Z,100.00
2019-03-09T09:42:54.241Z,100.00
2019-03-09T09:45:23.009Z,100.00
2019-03-09T09:47:51.796Z,100.00
2019-03-09T09:50:20.578Z,100.00
2019-03-09T09:52:50.532Z,100.00
2019-03-09T09:55:20.010Z,100.00
2019-03-09T09:57:49.010Z,100.00
2019-03-09T10:00:26.454Z,100.00
2019-03-09T10:02:55.193Z,100.00
2019-03-09T10:05:26.475Z,100.00
2019-03-09T10:07:55.225Z,100.00
2019-03-09T10:10:25.230Z,100.00
2019-03-09T10:12:56.228Z,100.00
2019-03-09T10:15:28.922Z,100.00
2019-03-09T10:17:57.855Z,100.00
2019-03-09T10:20:28.166Z,100.00
2019-03-09T10:23:04.201Z,100.00
2019-03-09T10:25:27.684Z,100.00
2019-03-09T10:27:56.384Z,100.00
2019-03-09T10:30:26.598Z,100.00
2019-03-09T10:32:55.294Z,100.00
2019-03-09T10:35:24.173Z,100.00
2019-03-09T10:37:52.886Z,100.00
2019-03-09T10:40:21.913Z,100.00
2019-03-09T10:42:50.771Z,100.00
2019-03-09T10:45:20.557Z,100.00
2019-03-09T10:47:49.651Z,100.00
2019-03-09T10:50:19.194Z,100.00
2019-03-09T10:52:47.947Z,100.00
2019-03-09T10:55:33.855Z,100.00
2019-03-09T10:58:06.359Z,100.00
2019-03-09T11:00:43.051Z,100.00
2019-03-09T11:03:13.792Z,100.00
2019-03-09T11:05:42.946Z,100.00
2019-03-09T11:08:11.951Z,100.00
2019-03-09T11:10:40.613Z,100.00
2019-03-09T11:13:09.722Z,100.00
2019-03-09T11:15:40.022Z,100.00
2019-03-09T11:18:08.843Z,100.00
2019-03-09T11:20:38.015Z,100.00
2019-03-09T11:23:06.809Z,100.00
2019-03-09T11:25:35.627Z,100.00
2019-03-09T11:28:09.601Z,100.00
2019-03-09T11:30:38.697Z,100.00
2019-03-09T11:33:07.375Z,100.00
2019-03-09T11:35:36.168Z,100.00
2019-03-09T11:38:04.853Z,100.00
2019-03-09T11:40:34.560Z,100.00
2019-03-09T11:43:04.804Z,100.00
2019-03-09T11:45:34.199Z,100.00
2019-03-09T11:48:02.988Z,100.00
2019-03-09T11:50:31.669Z,100.00
2019-03-09T11:53:00.490Z,100.00
2019-03-09T11:55:29.253Z,100.00
2019-03-09T11:57:59.391Z,93.60
2019-03-09T12:00:29.692Z,100.00
2019-03-09T12:02:58.385Z,100.00
2019-03-09T12:05:30.985Z,100.00
2019-03-09T12:07:59.839Z,98.63
2019-03-09T12:10:28.566Z,99.16
2019-03-09T12:12:57.531Z,94.26
2019-03-09T12:15:26.313Z,91.73
2019-03-09T12:17:58.207Z,86.18
2019-03-09T12:20:28.504Z,85.41
2019-03-09T12:23:01.652Z,82.72
2019-03-09T12:25:29.292Z,80.79
2019-03-09T12:28:03.693Z,82.40
2019-03-09T12:30:32.469Z,83.42
2019-03-09T12:33:02.792Z,79.93
2019-03-09T12:35:31.786Z,80.63
2019-03-09T12:38:00.415Z,79.29
2019-03-09T12:40:30.608Z,75.73
2019-03-09T12:42:59.578Z,76.73
2019-03-09T12:45:31.177Z,77.74
2019-03-09T12:47:59.916Z,79.74
2019-03-09T12:50:28.827Z,76.60
2019-03-09T12:53:00.579Z,80.55
2019-03-09T12:55:29.390Z,78.52
2019-03-09T12:58:09.346Z,79.36
2019-03-09T13:00:38.110Z,79.31
2019-03-09T13:03:08.434Z,79.05
2019-03-09T13:05:37.240Z,77.84
2019-03-09T13:08:06.019Z,77.60
2019-03-09T13:10:34.902Z,79.58
2019-03-09T13:13:08.116Z,81.29
2019-03-09T13:15:36.880Z,77.42
2019-03-09T13:18:07.379Z,76.19
2019-03-09T13:20:36.101Z,73.77
2019-03-09T13:23:20.339Z,72.43
2019-03-09T13:25:49.016Z,78.40
2019-03-09T13:28:17.823Z,72.88
2019-03-09T13:30:46.511Z,72.14
2019-03-09T13:33:15.408Z,74.86
2019-03-09T13:35:44.096Z,75.04
2019-03-09T13:38:12.881Z,74.25
2019-03-09T13:40:41.687Z,72.75
2019-03-09T13:43:10.358Z,73.86
2019-03-09T13:45:39.161Z,76.01
2019-03-09T13:48:07.936Z,76.90
2019-03-09T13:50:38.254Z,69.47
2019-03-09T13:53:06.945Z,76.96
2019-03-09T13:55:35.651Z,81.72
2019-03-09T13:58:04.312Z,76.20
2019-03-09T14:00:40.378Z,78.25
2019-03-09T14:03:05.790Z,81.34
2019-03-09T14:05:34.791Z,80.88
2019-03-09T14:08:03.565Z,82.88
2019-03-09T14:10:32.262Z,86.53
2019-03-09T14:13:00.942Z,84.17
2019-03-09T14:15:29.722Z,81.19
2019-03-09T14:17:58.527Z,79.99
2019-03-09T14:20:27.419Z,77.42
2019-03-09T14:22:56.211Z,74.74
2019-03-09T14:25:24.992Z,83.93
2019-03-09T14:27:53.874Z,84.30
2019-03-09T14:30:22.561Z,83.50
2019-03-09T14:32:51.354Z,87.79
2019-03-09T14:35:20.039Z,81.53
2019-03-09T14:37:48.754Z,82.04
2019-03-09T14:40:17.840Z,81.83
2019-03-09T14:42:48.098Z,82.45
2019-03-09T14:45:21.657Z,86.15
2019-03-09T14:47:50.664Z,86.62
2019-03-09T14:50:19.522Z,84.60
2019-03-09T14:52:48.321Z,84.88
2019-03-09T14:55:17.324Z,85.49
2019-03-09T14:57:46.319Z,90.51
2019-03-09T15:00:20.685Z,93.21
2019-03-09T15:02:50.851Z,96.85
2019-03-09T15:05:19.637Z,96.58
2019-03-09T15:07:48.434Z,95.48
2019-03-09T15:10:17.157Z,95.65
2019-03-09T15:12:55.021Z,97.37
2019-03-09T15:15:23.677Z,100.00
2019-03-09T15:17:52.391Z,98.51
2019-03-09T15:20:21.271Z,100.00
2019-03-09T15:22:49.923Z,100.00
2019-03-09T15:25:21.837Z,100.00
2019-03-09T15:27:50.462Z,100.00
2019-03-09T15:30:22.022Z,100.00
2019-03-09T15:32:50.759Z,100.00
2019-03-09T15:35:19.501Z,100.00
2019-03-09T15:37:48.148Z,100.00
2019-03-09T15:40:20.594Z,100.00
2019-03-09T15:42:49.374Z,100.00
2019-03-09T15:45:20.101Z,100.00
2019-03-09T15:47:48.809Z,100.00
2019-03-09T15:50:21.416Z,100.00
2019-03-09T15:52:52.679Z,100.00
2019-03-09T15:55:21.541Z,100.00
2019-03-09T15:57:51.936Z,100.00
2019-03-09T16:00:22.049Z,100.00
2019-03-09T16:02:50.730Z,100.00
2019-03-09T16:05:19.463Z,100.00
2019-03-09T16:07:48.301Z,100.00
2019-03-09T16:10:19.443Z,100.00
2019-03-09T16:12:48.585Z,100.00
2019-03-09T16:15:17.924Z,100.00
2019-03-09T16:17:46.744Z,100.00
2019-03-09T16:20:22.804Z,100.00
2019-03-09T16:22:52.773Z,100.00
2019-03-09T16:25:23.957Z,100.00
2019-03-09T16:27:52.695Z,100.00
2019-03-09T16:30:27.760Z,100.00
2019-03-09T16:32:56.393Z,100.00
2019-03-09T16:35:26.119Z,100.00
2019-03-09T16:37:55.179Z,100.00
2019-03-09T16:40:25.485Z,100.00
2019-03-09T16:42:54.268Z,100.00
2019-03-09T16:45:23.048Z,100.00
2019-03-09T16:47:51.776Z,100.00
2019-03-09T16:50:24.076Z,100.00
2019-03-09T16:52:52.803Z,100.00
2019-03-09T16:55:21.714Z,100.00
2019-03-09T16:57:50.536Z,100.00
2019-03-09T17:00:23.336Z,100.00
2019-03-09T17:02:53.701Z,100.00
2019-03-09T17:05:22.515Z,100.00
2019-03-09T17:07:51.476Z,100.00
2019-03-09T17:10:21.702Z,100.00
2019-03-09T17:12:50.496Z,100.00
2019-03-09T17:15:21.307Z,100.00
2019-03-09T17:17:49.980Z,100.00
2019-03-09T17:20:19.035Z,100.00
2019-03-09T17:22:48.083Z,100.00
2019-03-09T17:25:18.812Z,100.00
2019-03-09T17:27:50.396Z,100.00
2019-03-09T17:30:23.211Z,100.00
2019-03-09T17:32:53.532Z,100.00
2019-03-09T17:35:22.190Z,100.00
2019-03-09T17:37:51.032Z,100.00
2019-03-09T17:40:21.469Z,100.00
2019-03-09T17:42:50.227Z,100.00
2019-03-09T17:45:24.402Z,100.00
2019-03-09T17:47:53.049Z,100.00
2019-03-09T17:50:21.808Z,100.00
2019-03-09T17:52:50.426Z,100.00
2019-03-09T17:55:19.126Z,100.00
2019-03-09T17:57:47.865Z,100.00
2019-03-09T18:00:22.568Z,100.00
2019-03-09T18:02:51.293Z,100.00
2019-03-09T18:05:32.562Z,100.00
2019-03-09T18:07:53.222Z,100.00
2019-03-09T18:10:37.116Z,100.00
2019-03-09T18:13:05.925Z,100.00
2019-03-09T18:15:34.622Z,100.00
2019-03-09T18:18:03.360Z,100.00
2019-03-09T18:20:33.556Z,100.00
2019-03-09T18:23:03.891Z,100.00
2019-03-09T18:25:32.661Z,100.00
2019-03-09T18:28:01.398Z,100.00
2019-03-09T18:30:30.186Z,100.00
2019-03-09T18:33:02.445Z,100.00
2019-03-09T18:35:30.966Z,100.00
2019-03-09T18:38:01.786Z,100.00
2019-03-09T18:40:30.227Z,100.00
2019-03-09T18:42:59.017Z,100.00
2019-03-09T18:45:27.816Z,100.00
2019-03-09T18:47:56.605Z,100.00
2019-03-09T18:50:26.854Z,100.00
2019-03-09T18:52:56.754Z,100.00
2019-03-09T18:55:25.454Z,100.00
2019-03-09T18:57:54.360Z,100.00
2019-03-09T19:00:23.275Z,100.00
2019-03-09T19:02:51.899Z,100.00
2019-03-09T19:05:20.688Z,100.00
2019-03-09T19:07:49.408Z,100.00
2019-03-09T19:10:22.813Z,100.00
2019-03-09T19:12:51.522Z,100.00
2019-03-09T19:15:20.803Z,100.00
2019-03-09T19:17:50.990Z,100.00
2019-03-09T19:20:21.862Z,100.00
2019-03-09T19:22:50.653Z,100.00
2019-03-09T19:25:19.454Z,100.00
2019-03-09T19:27:48.270Z,100.00
2019-03-09T19:30:23.658Z,100.00
2019-03-09T19:33:00.008Z,100.00
2019-03-09T19:35:23.134Z,100.00
2019-03-09T19:37:52.002Z,100.00
2019-03-09T19:40:22.767Z,100.00
2019-03-09T19:42:51.623Z,100.00
2019-03-09T19:45:21.267Z,100.00
2019-03-09T19:47:49.976Z,100.00
2019-03-09T19:50:23.967Z,100.00
2019-03-09T19:52:52.840Z,100.00
2019-03-09T19:55:21.657Z,100.00
2019-03-09T19:57:50.535Z,100.00
2019-03-09T20:00:22.932Z,100.00
2019-03-09T20:02:51.650Z,100.00
2019-03-09T20:05:20.280Z,100.00
2019-03-09T20:07:49.526Z,100.00
2019-03-09T20:10:22.639Z,100.00
2019-03-09T20:12:51.461Z,100.00
2019-03-09T20:15:22.178Z,100.00
2019-03-09T20:17:50.852Z,100.00
2019-03-09T20:20:19.693Z,100.00
2019-03-09T20:22:48.362Z,100.00
2019-03-09T20:25:18.544Z,100.00
2019-03-09T20:27:48.701Z,100.00
2019-03-09T20:30:20.709Z,100.00
2019-03-09T20:32:49.491Z,100.00
2019-03-09T20:35:18.306Z,100.00
2019-03-09T20:37:46.955Z,100.00
2019-03-09T20:40:16.562Z,100.00
2019-03-09T20:42:47.642Z,100.00
2019-03-09T20:45:17.601Z,100.00
2019-03-09T20:47:46.331Z,100.00
2019-03-09T20:50:16.593Z,100.00
2019-03-09T20:52:45.448Z,100.00
2019-03-09T20:55:14.181Z,100.00
2019-03-09T20:57:42.807Z,100.00
2019-03-09T21:00:22.043Z,100.00
2019-03-09T21:02:50.745Z,100.00
2019-03-09T21:05:19.605Z,100.00
2019-03-09T21:07:48.238Z,100.00
2019-03-09T21:10:18.213Z,100.00
2019-03-09T21:13:01.792Z,100.00
2019-03-09T21:15:30.574Z,100.00
2019-03-09T21:17:59.263Z,100.00
2019-03-09T21:20:28.068Z,100.00
2019-03-09T21:22:56.705Z,100.00
2019-03-09T21:25:25.358Z,100.00
2019-03-09T21:27:54.061Z,100.00
2019-03-09T21:30:22.722Z,100.00
2019-03-09T21:32:51.473Z,100.00
2019-03-09T21:35:20.183Z,100.00
2019-03-09T21:37:52.896Z,100.00
2019-03-09T21:40:21.039Z,100.00
2019-03-09T21:42:49.663Z,100.00
2019-03-09T21:45:19.474Z,100.00
2019-03-09T21:47:48.092Z,100.00
2019-03-09T21:50:17.686Z,100.00
2019-03-09T21:52:46.307Z,100.00
2019-03-09T21:55:17.765Z,100.00
2019-03-09T21:57:46.494Z,100.00
2019-03-09T22:00:19.857Z,100.00
2019-03-09T22:02:50.554Z,100.00
2019-03-09T22:05:19.655Z,100.00
2019-03-09T22:07:48.411Z,100.00
2019-03-09T22:10:17.129Z,100.00
2019-03-09T22:12:45.777Z,100.00
2019-03-09T22:15:20.921Z,100.00
2019-03-09T22:17:49.615Z,100.00
2019-03-09T22:20:20.736Z,100.00
2019-03-09T22:22:49.697Z,100.00
2019-03-09T22:25:18.752Z,100.00
2019-03-09T22:27:47.464Z,100.00
2019-03-09T22:30:17.690Z,100.00
2019-03-09T22:32:46.395Z,100.00
2019-03-09T22:35:15.848Z,100.00
2019-03-09T22:37:44.548Z,100.00
2019-03-09T22:40:18.517Z,100.00
2019-03-09T22:42:47.193Z,100.00
2019-03-09T22:45:18.667Z,100.00
2019-03-09T22:47:47.384Z,100.00
2019-03-09T22:50:20.806Z,100.00
2019-03-09T22:52:49.753Z,100.00
2019-03-09T22:55:19.564Z,100.00
2019-03-09T22:57:48.169Z,100.00
2019-03-09T23:00:27.181Z,100.00
2019-03-09T23:02:55.821Z,100.00
2019-03-09T23:05:24.922Z,100.00
2019-03-09T23:07:53.540Z,100.00
2019-03-09T23:10:23.937Z,100.00
2019-03-09T23:12:52.564Z,100.00
2019-03-09T23:15:21.194Z,100.00
2019-03-09T23:17:49.899Z,100.00
2019-03-09T23:20:19.352Z,100.00
2019-03-09T23:22:48.056Z,100.00
2019-03-09T23:25:16.742Z,100.00
2019-03-09T23:27:45.354Z,100.00
2019-03-09T23:30:22.084Z,100.00
2019-03-09T23:32:50.799Z,100.00
2019-03-09T23:35:19.612Z,100.00
2019-03-09T23:37:48.844Z,100.00
2019-03-09T23:40:22.578Z,100.00
2019-03-09T23:42:51.237Z,100.00
2019-03-09T23:45:27.139Z,100.00
2019-03-09T23:47:55.763Z,100.00
2019-03-09T23:50:24.490Z,100.00
2019-03-09T23:52:53.277Z,100.00
2019-03-09T23:55:24.152Z,100.00
2019-03-09T23:57:52.777Z,100.00
